KMAF/MAF METAR and TAF weather

Enter ICAO airport designator
Station Type Date Time Source
KMAF METAR 2022/07/03 14:53 UTC NOAA

KMAF 031453Z 16016G22KT 9SM CLR 27/18 A3006 RMK AO2 SLP127 T02670178 51008 $


Station Type Date Time Source
KMAF Decoded METAR 2022/07/03 14:53 UTC NOAA

MIDLAND INTERNATIONAL AIRPORT , TX, United States (KMAF) 31-56N 102-12W 872M
Jul 03, 2022 - 10:53 AM EDT / 2022.07.03 1453 UTC
Wind: from the SSE (160 degrees) at 18 MPH (16 KT) gusting to 25 MPH (22 KT):0
Visibility: 9 mile(s):0
Sky conditions: clear
Temperature: 80.1 F (26.7 C)
Dew Point: 64.0 F (17.8 C)
Relative Humidity: 58%
Pressure (altimeter): 30.06 in. Hg (1017 hPa)
Pressure tendency: 0.02 inches (0.8 hPa) higher than three hours ago
ob: KMAF 031453Z 16016G22KT 9SM CLR 27/18 A3006 RMK AO2 SLP127 T02670178 51008
cycle: 15

Station Type Date Time Source
KMAF TAF 2022/07/03 12:22 UTC NOAA

TAF KMAF 031120Z 0312/0412 15010KT P6SM SKC
FM031400 16014G25KT P6SM SCT090
FM040500 14013KT P6SM SCT100

Example: see airport list